createdAt,value
2019-01-04T00:01:34.906Z,99488.53
2019-01-04T00:04:40.495Z,99485.46
2019-01-04T00:07:46.210Z,99491.61
2019-01-04T00:10:51.782Z,99492.58
2019-01-04T00:13:57.427Z,99490.31
2019-01-04T00:17:03.099Z,99499.17
2019-01-04T00:20:08.954Z,99489.87
2019-01-04T00:23:15.663Z,99503.42
2019-01-04T00:26:21.384Z,99508.57
2019-01-04T00:29:27.003Z,99504.16
2019-01-04T00:32:32.595Z,99508.81
2019-01-04T00:35:38.182Z,99510.63
2019-01-04T00:38:43.894Z,99519.39
2019-01-04T00:41:49.510Z,99519.84
2019-01-04T00:44:55.267Z,99530.32
2019-01-04T00:48:00.881Z,99528.00
2019-01-04T00:51:06.532Z,99527.93
2019-01-04T00:54:12.197Z,99531.41
2019-01-04T00:57:41.680Z,99531.86
2019-01-04T01:01:14.739Z,99532.53
2019-01-04T01:05:14.436Z,99538.95
2019-01-04T01:08:59.369Z,99533.09
2019-01-04T01:12:45.057Z,99542.03
2019-01-04T01:16:23.893Z,99548.27
2019-01-04T01:19:58.770Z,99538.78
2019-01-04T01:24:03.929Z,99545.84
2019-01-04T01:27:55.081Z,99551.83
2019-01-04T01:31:52.710Z,99550.36
2019-01-04T01:35:47.109Z,99553.50
2019-01-04T01:39:38.774Z,99553.70
2019-01-04T01:43:12.009Z,99554.79
2019-01-04T01:46:35.444Z,99558.84
2019-01-04T01:50:40.036Z,99554.23
2019-01-04T01:53:46.982Z,99555.41
2019-01-04T01:56:52.607Z,99556.84
2019-01-04T01:59:58.273Z,99559.75
2019-01-04T02:03:03.874Z,99565.47
2019-01-04T02:06:09.468Z,99569.39
2019-01-04T02:09:15.091Z,99558.73
2019-01-04T02:12:20.692Z,99573.38
2019-01-04T02:15:26.436Z,99565.55
2019-01-04T02:18:32.072Z,99567.48
2019-01-04T02:21:37.955Z,99564.38
2019-01-04T02:24:43.599Z,99577.97
2019-01-04T02:27:49.215Z,99573.09
2019-01-04T02:30:54.822Z,99567.13
2019-01-04T02:34:00.401Z,99561.61
2019-01-04T02:37:06.012Z,99577.25
2019-01-04T02:40:11.649Z,99576.11
2019-01-04T02:43:17.299Z,99575.28
2019-01-04T02:46:22.893Z,99581.27
2019-01-04T02:49:28.512Z,99584.87
2019-01-04T02:52:35.094Z,99585.69
2019-01-04T02:55:40.722Z,99587.70
2019-01-04T02:58:46.370Z,99590.47
2019-01-04T03:01:52.032Z,99598.18
2019-01-04T03:04:57.676Z,99596.84
2019-01-04T03:08:03.259Z,99598.95
2019-01-04T03:11:08.880Z,99606.40
2019-01-04T03:14:14.462Z,99604.30
2019-01-04T03:17:20.082Z,99610.55
2019-01-04T03:20:25.689Z,99621.20
2019-01-04T03:23:31.356Z,99621.50
2019-01-04T03:26:36.997Z,99623.92
2019-01-04T03:29:42.616Z,99631.16
2019-01-04T03:32:48.235Z,99636.39
2019-01-04T03:35:53.848Z,99628.13
2019-01-04T03:38:59.477Z,99639.59
2019-01-04T03:42:05.138Z,99644.02
2019-01-04T03:45:10.884Z,99658.37
2019-01-04T03:48:16.500Z,99666.00
2019-01-04T03:51:22.119Z,99671.58
2019-01-04T03:54:27.712Z,99673.51
2019-01-04T03:57:33.404Z,99679.73
2019-01-04T04:00:39.013Z,99679.54
2019-01-04T04:03:44.618Z,99683.94
2019-01-04T04:06:50.252Z,99681.67
2019-01-04T04:09:55.953Z,99686.41
2019-01-04T04:13:01.602Z,99687.05
2019-01-04T04:16:07.232Z,99685.50
2019-01-04T04:19:12.880Z,99693.31
2019-01-04T04:22:18.534Z,99694.55
2019-01-04T04:25:24.119Z,99694.42
2019-01-04T04:28:29.697Z,99701.47
2019-01-04T04:31:35.343Z,99702.83
2019-01-04T04:34:40.941Z,99701.45
2019-01-04T04:37:46.566Z,99707.48
2019-01-04T04:40:52.176Z,99716.34
2019-01-04T04:43:57.828Z,99716.25
2019-01-04T04:47:03.482Z,99722.93
2019-01-04T04:50:09.212Z,99728.06
2019-01-04T04:53:14.879Z,99726.30
2019-01-04T04:56:20.484Z,99733.95
2019-01-04T04:59:26.106Z,99736.43
2019-01-04T05:02:31.707Z,99741.77
2019-01-04T05:05:37.296Z,99740.37
2019-01-04T05:08:42.944Z,99753.73
2019-01-04T05:11:48.564Z,99759.41
2019-01-04T05:14:54.181Z,99763.63
2019-01-04T05:17:59.798Z,99763.05
2019-01-04T05:21:05.379Z,99777.75
2019-01-04T05:24:10.978Z,99779.80
2019-01-04T05:27:16.583Z,99796.00
2019-01-04T05:30:22.191Z,99792.22
2019-01-04T05:33:27.866Z,99808.45
2019-01-04T05:36:33.503Z,99814.88
2019-01-04T05:39:39.170Z,99820.56
2019-01-04T05:42:44.810Z,99824.49
2019-01-04T05:45:50.428Z,99837.55
2019-01-04T05:48:56.059Z,99840.69
2019-01-04T05:52:01.654Z,99850.31
2019-01-04T05:55:07.659Z,99867.69
2019-01-04T05:58:13.281Z,99872.33
2019-01-04T06:01:18.851Z,99872.21
2019-01-04T06:04:24.473Z,99885.67
2019-01-04T06:07:30.102Z,99895.55
2019-01-04T06:10:35.700Z,99904.66
2019-01-04T06:13:41.339Z,99912.56
2019-01-04T06:16:46.980Z,99917.11
2019-01-04T06:19:52.667Z,99920.98
2019-01-04T06:22:58.319Z,99932.91
2019-01-04T06:26:03.942Z,99939.09
2019-01-04T06:29:09.608Z,99951.62
2019-01-04T06:32:15.215Z,99961.72
2019-01-04T06:35:20.890Z,99963.35
2019-01-04T06:38:26.647Z,99975.12
2019-01-04T06:41:32.274Z,99977.06
2019-01-04T06:44:37.903Z,99983.57
2019-01-04T06:47:44.834Z,99983.11
2019-01-04T06:50:50.429Z,99997.28
2019-01-04T06:53:56.025Z,100002.55
2019-01-04T06:57:01.607Z,100003.12
2019-01-04T07:00:07.357Z,100007.83
2019-01-04T07:03:13.237Z,100022.35
2019-01-04T07:06:18.864Z,100028.90
2019-01-04T07:09:24.492Z,100035.98
2019-01-04T07:12:30.082Z,100050.14
2019-01-04T07:15:35.711Z,100054.56
2019-01-04T07:18:41.422Z,100059.95
2019-01-04T07:21:47.023Z,100071.95
2019-01-04T07:24:52.653Z,100069.76
2019-01-04T07:27:58.277Z,100077.50
2019-01-04T07:31:04.039Z,100081.17
2019-01-04T07:34:09.671Z,100076.72
2019-01-04T07:37:15.332Z,100073.64
2019-01-04T07:40:21.083Z,100091.45
2019-01-04T07:43:26.782Z,100096.80
2019-01-04T07:46:32.424Z,100100.96
2019-01-04T07:49:38.098Z,100115.93
2019-01-04T07:52:43.820Z,100133.83
2019-01-04T07:55:49.424Z,100150.62
2019-01-04T07:58:55.036Z,100160.88
2019-01-04T08:02:00.659Z,100153.70
2019-01-04T08:05:07.904Z,100162.52
2019-01-04T08:08:14.454Z,100152.56
2019-01-04T08:11:20.079Z,100158.93
2019-01-04T08:14:25.675Z,100146.77
2019-01-04T08:17:31.285Z,100151.78
2019-01-04T08:20:36.954Z,100155.13
2019-01-04T08:23:43.566Z,100169.13
2019-01-04T08:26:49.301Z,100167.27
2019-01-04T08:29:54.901Z,100178.03
2019-01-04T08:33:00.524Z,100178.47
2019-01-04T08:36:06.117Z,100190.51
2019-01-04T08:39:11.717Z,100198.64
2019-01-04T08:42:17.337Z,100200.13
2019-01-04T08:45:22.976Z,100200.44
2019-01-04T08:48:28.587Z,100200.05
2019-01-04T08:51:34.204Z,100196.96
2019-01-04T08:54:39.861Z,100198.05
2019-01-04T08:57:45.520Z,100209.64
2019-01-04T09:00:51.157Z,100209.63
2019-01-04T09:03:56.796Z,100219.14
2019-01-04T09:07:02.503Z,100222.48
2019-01-04T09:10:09.311Z,100219.80
2019-01-04T09:13:14.961Z,100215.28
2019-01-04T09:16:20.661Z,100218.31
2019-01-04T09:19:26.292Z,100217.07
2019-01-04T09:22:31.930Z,100225.30
2019-01-04T09:25:37.537Z,100224.78
2019-01-04T09:28:43.143Z,100230.83
2019-01-04T09:31:48.740Z,100223.77
2019-01-04T09:34:54.343Z,100218.94
2019-01-04T09:37:59.967Z,100211.73
2019-01-04T09:41:37.649Z,100218.09
2019-01-04T09:44:44.398Z,100212.58
2019-01-04T09:47:50.009Z,100222.09
2019-01-04T09:50:55.615Z,100224.37
2019-01-04T09:54:01.223Z,100218.07
2019-01-04T09:57:06.805Z,100221.11
2019-01-04T10:00:14.137Z,100225.01
2019-01-04T10:03:19.764Z,100223.78
2019-01-04T10:06:25.390Z,100225.22
2019-01-04T10:09:31.033Z,100221.31
2019-01-04T10:12:36.675Z,100215.33
2019-01-04T10:15:42.340Z,100221.38
2019-01-04T10:18:47.995Z,100227.48
2019-01-04T10:21:53.616Z,100223.94
2019-01-04T10:24:59.247Z,100218.69
2019-01-04T10:28:05.023Z,100211.56
2019-01-04T10:31:10.667Z,100217.28
2019-01-04T10:34:16.270Z,100225.61
2019-01-04T10:37:21.863Z,100222.56
2019-01-04T10:40:27.487Z,100215.62
2019-01-04T10:43:33.183Z,100220.80
2019-01-04T10:46:38.788Z,100219.61
2019-01-04T10:49:44.432Z,100221.28
2019-01-04T10:52:50.052Z,100226.56
2019-01-04T10:55:55.634Z,100232.45
2019-01-04T10:59:01.264Z,100232.53
2019-01-04T11:02:06.882Z,100235.23
2019-01-04T11:05:12.543Z,100227.50
2019-01-04T11:08:18.190Z,100231.05
2019-01-04T11:11:23.838Z,100231.95
2019-01-04T11:14:29.455Z,100232.47
2019-01-04T11:17:35.063Z,100239.59
2019-01-04T11:20:48.470Z,100237.36
2019-01-04T11:24:17.449Z,100244.00
2019-01-04T11:27:37.734Z,100231.91
2019-01-04T11:31:10.006Z,100233.55
2019-01-04T11:34:41.748Z,100228.81
2019-01-04T11:38:11.262Z,100232.12
2019-01-04T11:42:12.947Z,100237.18
2019-01-04T11:45:59.409Z,100234.31
2019-01-04T11:49:26.465Z,100235.10
2019-01-04T11:52:54.683Z,100239.02
2019-01-04T11:56:00.322Z,100234.95
2019-01-04T11:59:06.029Z,100225.12
2019-01-04T12:02:11.651Z,100227.79
2019-01-04T12:05:18.027Z,100219.50
2019-01-04T12:08:23.705Z,100228.95
2019-01-04T12:11:29.318Z,100229.01
2019-01-04T12:14:35.012Z,100227.63
2019-01-04T12:17:40.668Z,100221.58
2019-01-04T12:20:46.323Z,100221.55
2019-01-04T12:23:51.950Z,100225.45
2019-01-04T12:26:57.553Z,100229.22
2019-01-04T12:30:03.204Z,100237.05
2019-01-04T12:33:08.890Z,100230.95
2019-01-04T12:36:14.535Z,100232.72
2019-01-04T12:39:20.166Z,100232.09
2019-01-04T12:42:25.826Z,100236.70
2019-01-04T12:45:31.488Z,100239.63
2019-01-04T12:48:37.136Z,100239.47
2019-01-04T12:51:42.786Z,100242.61
2019-01-04T12:54:48.412Z,100236.98
2019-01-04T12:57:54.035Z,100234.02
2019-01-04T13:00:59.814Z,100243.53
2019-01-04T13:04:05.759Z,100249.65
2019-01-04T13:07:12.488Z,100242.06
2019-01-04T13:10:18.119Z,100243.55
2019-01-04T13:13:23.691Z,100244.08
2019-01-04T13:16:29.335Z,100240.83
2019-01-04T13:19:34.934Z,100243.08
2019-01-04T13:22:40.525Z,100254.37
2019-01-04T13:25:46.163Z,100262.39
2019-01-04T13:28:51.777Z,100263.77
2019-01-04T13:31:57.479Z,100255.08
2019-01-04T13:35:03.134Z,100255.29
2019-01-04T13:38:08.803Z,100256.13
2019-01-04T13:41:14.468Z,100255.52
2019-01-04T13:44:20.061Z,100256.09
2019-01-04T13:47:32.052Z,100256.06
2019-01-04T13:50:33.015Z,100257.78
2019-01-04T13:53:38.621Z,100258.30
2019-01-04T13:56:45.042Z,100250.83
2019-01-04T13:59:50.644Z,100263.87
2019-01-04T14:02:56.323Z,100266.81
2019-01-04T14:06:01.969Z,100260.20
2019-01-04T14:09:08.695Z,100256.58
2019-01-04T14:12:14.349Z,100255.06
2019-01-04T14:15:19.979Z,100253.19
2019-01-04T14:18:25.609Z,100259.67
2019-01-04T14:21:31.194Z,100257.77
2019-01-04T14:24:36.852Z,100259.78
2019-01-04T14:27:42.482Z,100255.42
2019-01-04T14:30:48.116Z,100252.74
2019-01-04T14:33:53.747Z,100249.48
2019-01-04T14:36:59.398Z,100247.34
2019-01-04T14:40:24.078Z,100247.80
2019-01-04T14:43:29.682Z,100252.58
2019-01-04T14:46:35.306Z,100251.88
2019-01-04T14:49:40.948Z,100252.75
2019-01-04T14:52:46.616Z,100243.96
2019-01-04T14:55:52.234Z,100251.88
2019-01-04T14:58:57.938Z,100255.92
2019-01-04T15:02:03.581Z,100259.78
2019-01-04T15:05:09.368Z,100247.65
2019-01-04T15:08:14.951Z,100254.55
2019-01-04T15:11:20.603Z,100256.00
2019-01-04T15:14:26.286Z,100255.95
2019-01-04T15:17:31.928Z,100260.53
2019-01-04T15:20:37.560Z,100266.81
2019-01-04T15:23:43.217Z,100261.80
2019-01-04T15:26:48.890Z,100266.28
2019-01-04T15:29:54.587Z,100266.40
2019-01-04T15:33:00.246Z,100268.38
2019-01-04T15:36:05.969Z,100268.28
2019-01-04T15:39:11.700Z,100261.30
2019-01-04T15:42:17.314Z,100259.70
2019-01-04T15:45:22.928Z,100262.45
2019-01-04T15:48:28.551Z,100256.08
2019-01-04T15:51:34.148Z,100254.14
2019-01-04T15:54:41.180Z,100254.45
2019-01-04T15:57:46.827Z,100253.66
2019-01-04T16:01:03.684Z,100257.39
2019-01-04T16:04:11.001Z,100256.92
2019-01-04T16:07:16.649Z,100250.03
2019-01-04T16:10:22.276Z,100257.03
2019-01-04T16:13:27.926Z,100254.22
2019-01-04T16:16:33.668Z,100268.45
2019-01-04T16:19:39.368Z,100266.84
2019-01-04T16:22:45.071Z,100270.19
2019-01-04T16:25:50.667Z,100269.40
2019-01-04T16:28:56.310Z,100282.22
2019-01-04T16:32:01.917Z,100284.60
2019-01-04T16:35:07.570Z,100281.08
2019-01-04T16:38:13.193Z,100288.91
2019-01-04T16:41:19.105Z,100293.97
2019-01-04T16:44:24.766Z,100293.58
2019-01-04T16:48:12.436Z,100298.54
2019-01-04T16:51:38.546Z,100299.52
2019-01-04T16:54:44.182Z,100305.79
2019-01-04T16:57:49.855Z,100304.06
2019-01-04T17:00:55.525Z,100309.89
2019-01-04T17:04:01.180Z,100310.66
2019-01-04T17:07:06.809Z,100309.36
2019-01-04T17:10:12.970Z,100310.17
2019-01-04T17:13:18.604Z,100307.34
2019-01-04T17:16:24.191Z,100311.36
2019-01-04T17:19:29.800Z,100306.16
2019-01-04T17:22:35.451Z,100309.81
2019-01-04T17:25:41.203Z,100312.27
2019-01-04T17:28:47.789Z,100311.87
2019-01-04T17:32:55.590Z,100310.55
2019-01-04T17:36:10.770Z,100313.58
2019-01-04T17:39:17.207Z,100299.53
2019-01-04T17:42:22.820Z,100302.34
2019-01-04T17:45:28.424Z,100304.71
2019-01-04T17:48:34.089Z,100308.39
2019-01-04T17:51:39.810Z,100314.91
2019-01-04T17:54:46.565Z,100312.75
2019-01-04T17:57:52.257Z,100317.39
2019-01-04T18:00:57.901Z,100311.94
2019-01-04T18:04:04.914Z,100313.56
2019-01-04T18:07:10.569Z,100311.25
2019-01-04T18:10:16.228Z,100315.69
2019-01-04T18:13:21.921Z,100318.22
2019-01-04T18:16:28.555Z,100317.01
2019-01-04T18:19:34.237Z,100324.38
2019-01-04T18:22:40.909Z,100323.19
2019-01-04T18:25:46.543Z,100328.70
2019-01-04T18:28:52.185Z,100336.29
2019-01-04T18:31:57.780Z,100329.27
2019-01-04T18:35:03.522Z,100333.83
2019-01-04T18:38:09.128Z,100328.91
2019-01-04T18:41:14.725Z,100325.07
2019-01-04T18:44:20.358Z,100319.61
2019-01-04T18:47:26.071Z,100319.44
2019-01-04T18:50:32.243Z,100319.02
2019-01-04T18:53:37.891Z,100323.91
2019-01-04T18:56:43.564Z,100318.31
2019-01-04T18:59:51.704Z,100319.91
2019-01-04T19:02:57.339Z,100311.20
2019-01-04T19:06:02.957Z,100304.02
2019-01-04T19:09:09.604Z,100309.61
2019-01-04T19:12:15.219Z,100305.25
2019-01-04T19:15:20.860Z,100311.98
2019-01-04T19:18:27.637Z,100314.87
2019-01-04T19:21:33.299Z,100309.98
2019-01-04T19:24:38.980Z,100302.56
2019-01-04T19:27:44.607Z,100314.97
2019-01-04T19:30:50.236Z,100314.70
2019-01-04T19:33:56.160Z,100315.94
2019-01-04T19:37:01.818Z,100310.86
2019-01-04T19:40:08.044Z,100314.41
2019-01-04T19:43:13.824Z,100314.95
2019-01-04T19:46:19.475Z,100314.72
2019-01-04T19:49:25.206Z,100316.16
2019-01-04T19:52:30.811Z,100316.17
2019-01-04T19:55:36.593Z,100315.56
2019-01-04T19:58:42.191Z,100312.00
2019-01-04T20:01:47.841Z,100309.04
2019-01-04T20:04:53.560Z,100313.67
2019-01-04T20:08:53.661Z,100314.88
2019-01-04T20:13:07.532Z,100314.05
2019-01-04T20:16:42.014Z,100315.16
2019-01-04T20:20:10.197Z,100315.78
2019-01-04T20:23:37.484Z,100321.35
2019-01-04T20:27:01.949Z,100320.39
2019-01-04T20:30:25.517Z,100318.98
2019-01-04T20:33:48.677Z,100322.15
2019-01-04T20:37:11.981Z,100316.85
2019-01-04T20:40:54.881Z,100315.33
2019-01-04T20:44:18.220Z,100321.52
2019-01-04T20:48:00.890Z,100316.17
2019-01-04T20:51:43.645Z,100321.31
2019-01-04T20:55:07.212Z,100318.44
2019-01-04T20:58:44.247Z,100323.05
2019-01-04T21:02:11.918Z,100316.95
2019-01-04T21:05:28.605Z,100313.53
2019-01-04T21:08:51.951Z,100314.82
2019-01-04T21:12:34.767Z,100311.66
2019-01-04T21:16:03.014Z,100308.63
2019-01-04T21:19:26.109Z,100311.59
2019-01-04T21:22:59.404Z,100307.59
2019-01-04T21:26:35.926Z,100301.41
2019-01-04T21:29:51.825Z,100296.86
2019-01-04T21:33:28.454Z,100298.59
2019-01-04T21:36:51.551Z,100290.38
2019-01-04T21:40:21.876Z,100283.74
2019-01-04T21:43:49.548Z,100287.30
2019-01-04T21:47:23.010Z,100275.52
2019-01-04T21:50:47.532Z,100280.87
2019-01-04T21:54:16.484Z,100279.75
2019-01-04T21:57:43.831Z,100279.94
2019-01-04T22:01:14.420Z,100277.79
2019-01-04T22:04:41.806Z,100280.48
2019-01-04T22:08:12.454Z,100272.20
2019-01-04T22:11:55.301Z,100266.08
2019-01-04T22:15:26.551Z,100259.08
2019-01-04T22:18:49.826Z,100253.21
2019-01-04T22:22:13.000Z,100256.52
2019-01-04T22:25:37.513Z,100250.42
2019-01-04T22:29:02.032Z,100247.67
2019-01-04T22:32:35.688Z,100248.02
2019-01-04T22:35:53.140Z,100255.81
2019-01-04T22:39:16.748Z,100241.68
2019-01-04T22:42:40.338Z,100239.58
2019-01-04T22:46:16.940Z,100249.66
2019-01-04T22:49:40.259Z,100251.45
2019-01-04T22:53:10.184Z,100239.31
2019-01-04T22:56:38.472Z,100247.09
2019-01-04T23:00:01.708Z,100242.20
2019-01-04T23:03:26.620Z,100238.14
2019-01-04T23:06:59.202Z,100237.52
2019-01-04T23:10:42.873Z,100238.41
2019-01-04T23:14:06.005Z,100240.34
2019-01-04T23:17:33.961Z,100247.10
2019-01-04T23:20:58.400Z,100239.81
2019-01-04T23:24:31.877Z,100248.48
2019-01-04T23:28:02.292Z,100245.47
2019-01-04T23:31:22.756Z,100238.91
2019-01-04T23:35:05.510Z,100246.51
2019-01-04T23:38:26.428Z,100226.53
2019-01-04T23:41:53.695Z,100229.31
2019-01-04T23:45:17.138Z,100233.86
2019-01-04T23:48:50.669Z,100237.48
2019-01-04T23:52:13.894Z,100237.44
2019-01-04T23:55:47.324Z,100231.49
2019-01-04T23:59:20.796Z,100216.55
